General Carneiro, Brazil
Current Conditions -  °F | °C
As of 4:00 PM on Tuesday 21 Oct 2014 (Local Time) from SBCY Reporting Station
Scattered Clouds Scattered Clouds  
Wind Chill: 95°   Ceiling: Unl
Heat Index: 98°   Visibility: 6mi
Dew Point: 66°   Wind: 7mph
Humidity: 39%   Direction: 160°SSE
Pressure: 29.83"   Gusts: NA
Location:  15.71°S, 52.76°W
Report Text: SBCY 211900Z 16006KT 9999 SCT020 35/19 Q1010
Loading
Personal Weather Stations






























Interactive Weather Map
Tropical Storm Tracking
New forecast layout! Learn more

10-Day Weather Forecast

Advertisements
Track Severe Weather on mobile